createdAt,value
2019-04-09T00:00:01.782Z,1007.29
2019-04-09T00:01:01.702Z,1007.32
2019-04-09T00:02:01.437Z,1007.34
2019-04-09T00:03:00.786Z,1007.33
2019-04-09T00:04:00.610Z,1007.33
2019-04-09T00:05:00.643Z,1007.30
2019-04-09T00:06:00.711Z,1007.32
2019-04-09T00:07:00.535Z,1007.29
2019-04-09T00:08:04.277Z,1007.29
2019-04-09T00:09:00.587Z,1007.30
2019-04-09T00:10:00.453Z,1007.33
2019-04-09T00:11:01.316Z,1007.31
2019-04-09T00:12:00.448Z,1007.31
2019-04-09T00:13:00.841Z,1007.25
2019-04-09T00:14:00.354Z,1007.27
2019-04-09T00:15:00.751Z,1007.26
2019-04-09T00:16:00.642Z,1007.28
2019-04-09T00:17:00.282Z,1007.26
2019-04-09T00:18:00.309Z,1007.26
2019-04-09T00:19:00.506Z,1007.27
2019-04-09T00:20:00.201Z,1007.29
2019-04-09T00:21:00.183Z,1007.26
2019-04-09T00:22:00.223Z,1007.32
2019-04-09T00:23:00.142Z,1007.24
2019-04-09T00:24:00.131Z,1007.26
2019-04-09T00:25:00.092Z,1007.24
2019-04-09T00:26:00.063Z,1007.27
2019-04-09T00:27:00.053Z,1007.23
2019-04-09T00:28:00.051Z,1007.18
2019-04-09T00:29:00.174Z,1007.21
2019-04-09T00:30:00.226Z,1007.18
2019-04-09T00:31:00.197Z,1007.18
2019-04-09T00:31:59.922Z,1007.20
2019-04-09T00:32:59.981Z,1007.22
2019-04-09T00:33:59.883Z,1007.19
2019-04-09T00:35:00.699Z,1007.19
2019-04-09T00:35:59.822Z,1007.19
2019-04-09T00:37:00.383Z,1007.18
2019-04-09T00:38:00.262Z,1007.17
2019-04-09T00:38:59.813Z,1007.19
2019-04-09T00:39:59.730Z,1007.20
2019-04-09T00:40:59.730Z,1007.16
2019-04-09T00:42:00.453Z,1007.16
2019-04-09T00:43:00.483Z,1007.15
2019-04-09T00:43:59.639Z,1007.14
2019-04-09T00:44:59.686Z,1007.17
2019-04-09T00:45:59.582Z,1007.17
2019-04-09T00:46:59.695Z,1007.14
2019-04-09T00:47:59.642Z,1007.15
2019-04-09T00:48:59.514Z,1007.19
2019-04-09T00:50:00.683Z,1007.21
2019-04-09T00:50:59.803Z,1007.17
2019-04-09T00:51:59.820Z,1007.19
2019-04-09T00:52:59.417Z,1007.19
2019-04-09T00:53:59.405Z,1007.19
2019-04-09T00:54:59.400Z,1007.17
2019-04-09T00:55:59.948Z,1007.19
2019-04-09T00:57:05.901Z,1007.20
2019-04-09T00:57:59.429Z,1007.16
2019-04-09T00:58:59.275Z,1007.18
2019-04-09T00:59:59.258Z,1007.18
2019-04-09T01:00:59.346Z,1007.16
2019-04-09T01:01:59.193Z,1007.15
2019-04-09T01:02:59.251Z,1007.16
2019-04-09T01:03:59.240Z,1007.14
2019-04-09T01:04:59.129Z,1007.13
2019-04-09T01:05:59.164Z,1007.15
2019-04-09T01:06:59.073Z,1007.13
2019-04-09T01:07:59.074Z,1007.13
2019-04-09T01:08:59.030Z,1007.14
2019-04-09T01:09:59.546Z,1007.12
2019-04-09T01:10:59.175Z,1007.12
2019-04-09T01:11:59.703Z,1007.11
2019-04-09T01:13:00.029Z,1007.10
2019-04-09T01:13:59.425Z,1007.13
2019-04-09T01:14:58.894Z,1007.09
2019-04-09T01:15:59.682Z,1007.11
2019-04-09T01:16:58.932Z,1007.06
2019-04-09T01:17:58.819Z,1007.07
2019-04-09T01:19:09.812Z,1007.08
2019-04-09T01:19:58.768Z,1007.12
2019-04-09T01:20:58.734Z,1007.11
2019-04-09T01:21:59.639Z,1007.10
2019-04-09T01:22:59.603Z,1007.12
2019-04-09T01:23:59.632Z,1007.09
2019-04-09T01:24:59.714Z,1007.08
2019-04-09T01:25:59.720Z,1007.10
2019-04-09T01:27:08.701Z,1007.12
2019-04-09T01:27:58.590Z,1007.11
2019-04-09T01:28:58.534Z,1007.14
2019-04-09T01:29:59.025Z,1007.12
2019-04-09T01:30:58.968Z,1007.10
2019-04-09T01:31:58.522Z,1007.12
2019-04-09T01:32:58.446Z,1007.11
2019-04-09T01:33:58.531Z,1007.12
2019-04-09T01:34:59.138Z,1007.14
2019-04-09T01:35:58.453Z,1007.11
2019-04-09T01:36:58.343Z,1007.12
2019-04-09T01:37:58.318Z,1007.14
2019-04-09T01:38:58.982Z,1007.20
2019-04-09T01:39:58.904Z,1007.18
2019-04-09T01:40:58.783Z,1007.15
2019-04-09T01:41:58.345Z,1007.14
2019-04-09T01:42:58.212Z,1007.17
2019-04-09T01:43:58.910Z,1007.17
2019-04-09T01:44:59.214Z,1007.13
2019-04-09T01:45:58.136Z,1007.15
2019-04-09T01:46:58.192Z,1007.12
2019-04-09T01:47:58.073Z,1007.13
2019-04-09T01:48:58.910Z,1007.13
2019-04-09T01:49:58.901Z,1007.22
2019-04-09T01:50:58.014Z,1007.16
2019-04-09T01:51:57.986Z,1007.16
2019-04-09T01:52:58.812Z,1007.17
2019-04-09T01:53:58.974Z,1007.15
2019-04-09T01:54:57.904Z,1007.15
2019-04-09T01:55:58.041Z,1007.15
2019-04-09T01:56:57.936Z,1007.10
2019-04-09T01:57:58.027Z,1007.10
2019-04-09T01:59:00.554Z,1007.06
2019-04-09T01:59:57.785Z,1007.08
2019-04-09T02:00:58.803Z,1007.09
2019-04-09T02:01:57.787Z,1007.10
2019-04-09T02:02:57.710Z,1007.07
2019-04-09T02:03:58.175Z,1007.03
2019-04-09T02:04:58.296Z,1007.09
2019-04-09T02:05:58.320Z,1007.09
2019-04-09T02:06:57.705Z,1007.08
2019-04-09T02:07:57.582Z,1007.05
2019-04-09T02:08:57.614Z,1007.08
2019-04-09T02:09:58.396Z,1007.09
2019-04-09T02:10:58.019Z,1007.09
2019-04-09T02:11:57.706Z,1007.10
2019-04-09T02:12:57.616Z,1007.11
2019-04-09T02:13:57.432Z,1007.10
2019-04-09T02:14:58.506Z,1007.10
2019-04-09T02:15:57.383Z,1007.08
2019-04-09T02:16:57.463Z,1007.07
2019-04-09T02:17:57.429Z,1007.09
2019-04-09T02:18:57.313Z,1007.07
2019-04-09T02:19:57.382Z,1007.08
2019-04-09T02:20:57.771Z,1007.09
2019-04-09T02:21:57.639Z,1007.08
2019-04-09T02:22:57.213Z,1007.07
2019-04-09T02:23:57.301Z,1007.10
2019-04-09T02:24:57.166Z,1007.09
2019-04-09T02:25:57.636Z,1007.10
2019-04-09T02:26:57.455Z,1007.05
2019-04-09T02:27:57.093Z,1007.07
2019-04-09T02:28:57.063Z,1007.11
2019-04-09T02:29:57.794Z,1007.09
2019-04-09T02:30:57.659Z,1007.09
2019-04-09T02:31:57.563Z,1007.11
2019-04-09T02:32:58.515Z,1007.10
2019-04-09T02:33:58.447Z,1007.09
2019-04-09T02:34:56.977Z,1007.10
2019-04-09T02:35:57.462Z,1007.08
2019-04-09T02:36:58.458Z,1007.08
2019-04-09T02:37:57.197Z,1007.12
2019-04-09T02:38:56.823Z,1007.06
2019-04-09T02:39:56.791Z,1007.09
2019-04-09T02:40:56.795Z,1007.12
2019-04-09T02:41:56.742Z,1007.16
2019-04-09T02:42:56.807Z,1007.11
2019-04-09T02:43:56.694Z,1007.14
2019-04-09T02:44:57.691Z,1007.15
2019-04-09T02:45:57.724Z,1007.15
2019-04-09T02:46:56.622Z,1007.16
2019-04-09T02:47:56.698Z,1007.16
2019-04-09T02:48:56.654Z,1007.16
2019-04-09T02:49:56.658Z,1007.14
2019-04-09T02:50:57.444Z,1007.17
2019-04-09T02:51:56.602Z,1007.15
2019-04-09T02:52:56.470Z,1007.11
2019-04-09T02:53:56.464Z,1007.14
2019-04-09T02:54:56.423Z,1007.13
2019-04-09T02:55:56.392Z,1007.17
2019-04-09T02:56:56.989Z,1007.20
2019-04-09T02:57:58.525Z,1007.21
2019-04-09T02:58:56.396Z,1007.16
2019-04-09T02:59:56.857Z,1007.22
2019-04-09T03:00:56.807Z,1007.21
2019-04-09T03:01:56.944Z,1007.21
2019-04-09T03:02:56.804Z,1007.22
2019-04-09T03:03:56.232Z,1007.20
2019-04-09T03:04:56.231Z,1007.24
2019-04-09T03:05:56.142Z,1007.21
2019-04-09T03:06:56.804Z,1007.22
2019-04-09T03:07:56.665Z,1007.24
2019-04-09T03:08:56.157Z,1007.21
2019-04-09T03:09:56.044Z,1007.22
2019-04-09T03:10:56.062Z,1007.17
2019-04-09T03:11:56.409Z,1007.20
2019-04-09T03:12:56.071Z,1007.19
2019-04-09T03:13:55.941Z,1007.20
2019-04-09T03:14:55.994Z,1007.20
2019-04-09T03:15:56.408Z,1007.20
2019-04-09T03:16:55.899Z,1007.21
2019-04-09T03:17:56.161Z,1007.22
2019-04-09T03:18:56.220Z,1007.26
2019-04-09T03:19:55.847Z,1007.25
2019-04-09T03:20:55.772Z,1007.25
2019-04-09T03:21:56.661Z,1007.29
2019-04-09T03:22:56.017Z,1007.28
2019-04-09T03:23:55.977Z,1007.28
2019-04-09T03:24:55.762Z,1007.28
2019-04-09T03:25:55.665Z,1007.28
2019-04-09T03:26:55.794Z,1007.27
2019-04-09T03:28:03.867Z,1007.30
2019-04-09T03:28:55.608Z,1007.31
2019-04-09T03:29:55.563Z,1007.31
2019-04-09T03:30:55.884Z,1007.32
2019-04-09T03:31:58.152Z,1007.33
2019-04-09T03:32:56.073Z,1007.35
2019-04-09T03:33:57.290Z,1007.32
2019-04-09T03:34:56.467Z,1007.28
2019-04-09T03:35:56.316Z,1007.32
2019-04-09T03:36:56.224Z,1007.31
2019-04-09T03:37:55.509Z,1007.32
2019-04-09T03:38:55.438Z,1007.31
2019-04-09T03:39:56.276Z,1007.31
2019-04-09T03:40:56.205Z,1007.30
2019-04-09T03:41:55.312Z,1007.29
2019-04-09T03:42:55.334Z,1007.25
2019-04-09T03:43:55.181Z,1007.26
2019-04-09T03:44:55.253Z,1007.22
2019-04-09T03:45:55.510Z,1007.27
2019-04-09T03:46:55.106Z,1007.26
2019-04-09T03:47:55.171Z,1007.32
2019-04-09T03:48:55.950Z,1007.26
2019-04-09T03:49:55.074Z,1007.28
2019-04-09T03:50:55.003Z,1007.26
2019-04-09T03:51:54.994Z,1007.27
2019-04-09T03:52:55.852Z,1007.31
2019-04-09T04:02:17.858Z,1007.36
2019-04-09T04:44:04.552Z,1007.54
2019-04-09T06:22:59.368Z,1007.97
2019-04-09T06:28:48.190Z,1007.96
2019-04-09T06:36:40.109Z,1008.04
2019-04-09T06:39:22.919Z,1008.05
2019-04-09T08:46:01.875Z,1008.65
2019-04-09T08:49:09.603Z,1008.64
2019-04-09T08:49:45.789Z,1008.66
2019-04-09T08:52:11.200Z,1008.67
2019-04-09T08:54:31.454Z,1008.65
2019-04-09T08:55:32.742Z,1008.64
2019-04-09T08:57:31.426Z,1008.63
2019-04-09T08:58:31.379Z,1008.67
2019-04-09T08:59:31.711Z,1008.64
2019-04-09T09:01:52.845Z,1008.67
2019-04-09T09:14:29.859Z,1008.70
2019-04-09T09:58:01.434Z,1008.66
2019-04-09T09:59:01.343Z,1008.72
2019-04-09T10:01:12.813Z,1008.70
2019-04-09T10:02:06.952Z,1008.71
2019-04-09T10:04:09.872Z,1008.69
2019-04-09T10:05:10.705Z,1008.66
2019-04-09T10:07:30.531Z,1008.64
2019-04-09T10:08:16.155Z,1008.63
2019-04-09T10:10:19.081Z,1008.60
2019-04-09T10:11:17.794Z,1008.62
2019-04-09T10:13:24.567Z,1008.63
2019-04-09T10:14:21.821Z,1008.59
2019-04-09T10:15:21.952Z,1008.63
2019-04-09T10:16:21.742Z,1008.65
2019-04-09T10:17:28.242Z,1008.59
2019-04-09T10:18:21.612Z,1008.60
2019-04-09T10:19:25.639Z,1008.56
2019-04-09T10:20:22.226Z,1008.56
2019-04-09T10:21:21.664Z,1008.61
2019-04-09T10:22:24.059Z,1008.56
2019-04-09T10:23:21.493Z,1008.61
2019-04-09T10:24:30.203Z,1008.62
2019-04-09T10:25:22.282Z,1008.61
2019-04-09T10:26:22.367Z,1008.55
2019-04-09T10:27:22.067Z,1008.56
2019-04-09T10:28:24.050Z,1008.57
2019-04-09T10:29:21.768Z,1008.56
2019-04-09T10:30:22.250Z,1008.58
2019-04-09T10:31:27.590Z,1008.58
2019-04-09T10:32:21.796Z,1008.53
2019-04-09T10:33:22.463Z,1008.60
2019-04-09T10:34:24.270Z,1008.55
2019-04-09T10:35:21.464Z,1008.59
2019-04-09T10:36:21.420Z,1008.52
2019-04-09T10:37:23.138Z,1008.53
2019-04-09T10:38:22.643Z,1008.55
2019-04-09T10:39:22.849Z,1008.51
2019-04-09T10:40:22.022Z,1008.54
2019-04-09T10:41:33.248Z,1008.52
2019-04-09T10:42:21.730Z,1008.49
2019-04-09T10:43:24.004Z,1008.48
2019-04-09T10:44:21.079Z,1008.48
2019-04-09T10:45:23.915Z,1008.43
2019-04-09T10:46:22.043Z,1008.49
2019-04-09T10:47:20.920Z,1008.47
2019-04-09T10:48:21.001Z,1008.45
2019-04-09T10:49:23.880Z,1008.45
2019-04-09T10:50:23.529Z,1008.46
2019-04-09T10:51:21.663Z,1008.49
2019-04-09T10:52:24.168Z,1008.48
2019-04-09T10:53:20.791Z,1008.46
2019-04-09T10:54:21.504Z,1008.45
2019-04-09T10:55:22.642Z,1008.46
2019-04-09T10:56:20.850Z,1008.48
2019-04-09T10:57:20.701Z,1008.44
2019-04-09T10:58:24.002Z,1008.46
2019-04-09T10:59:21.621Z,1008.44
2019-04-09T11:00:20.772Z,1008.48
2019-04-09T11:01:32.508Z,1008.48
2019-04-09T11:02:25.384Z,1008.49
2019-04-09T11:03:20.843Z,1008.47
2019-04-09T11:04:21.160Z,1008.51
2019-04-09T11:05:20.625Z,1008.50
2019-04-09T11:06:24.507Z,1008.50
2019-04-09T11:07:21.463Z,1008.48
2019-04-09T11:08:21.326Z,1008.46
2019-04-09T11:09:20.419Z,1008.46
2019-04-09T11:10:25.508Z,1008.47
2019-04-09T11:11:22.085Z,1008.46
2019-04-09T11:12:21.489Z,1008.44
2019-04-09T11:13:21.463Z,1008.48
2019-04-09T11:14:20.908Z,1008.50
2019-04-09T11:15:21.290Z,1008.48
2019-04-09T11:16:21.158Z,1008.52
2019-04-09T11:17:21.013Z,1008.46
2019-04-09T11:18:21.325Z,1008.47
2019-04-09T11:19:23.603Z,1008.52
2019-04-09T11:20:20.539Z,1008.50
2019-04-09T11:21:20.573Z,1008.53
2019-04-09T11:22:21.439Z,1008.49
2019-04-09T11:23:22.597Z,1008.50
2019-04-09T11:24:20.234Z,1008.49
2019-04-09T11:25:20.069Z,1008.53
2019-04-09T11:26:21.074Z,1008.47
2019-04-09T11:27:21.813Z,1008.49
2019-04-09T11:28:20.920Z,1008.47
2019-04-09T11:29:20.653Z,1008.49
2019-04-09T11:30:21.637Z,1008.56
2019-04-09T11:31:20.156Z,1008.52
2019-04-09T11:32:20.167Z,1008.55
2019-04-09T11:33:20.462Z,1008.54
2019-04-09T11:34:20.002Z,1008.53
2019-04-09T11:35:19.949Z,1008.54
2019-04-09T11:36:19.832Z,1008.53
2019-04-09T11:37:19.809Z,1008.53
2019-04-09T11:38:19.817Z,1008.52
2019-04-09T11:39:20.491Z,1008.51
2019-04-09T11:40:20.868Z,1008.49
2019-04-09T11:41:19.725Z,1008.50
2019-04-09T11:42:19.703Z,1008.50
2019-04-09T11:43:20.548Z,1008.50
2019-04-09T11:44:20.668Z,1008.50
2019-04-09T11:45:19.715Z,1008.46
2019-04-09T11:46:20.077Z,1008.48
2019-04-09T11:47:19.589Z,1008.45
2019-04-09T11:48:19.680Z,1008.46
2019-04-09T11:49:20.464Z,1008.50
2019-04-09T11:50:20.243Z,1008.50
2019-04-09T11:51:19.513Z,1008.53
2019-04-09T11:52:20.532Z,1008.42
2019-04-09T11:53:19.801Z,1008.45
2019-04-09T11:54:20.571Z,1008.44
2019-04-09T11:55:19.631Z,1008.42
2019-04-09T11:56:19.985Z,1008.42
2019-04-09T11:57:20.342Z,1008.46
2019-04-09T11:58:19.416Z,1008.44
2019-04-09T11:59:25.147Z,1008.44
2019-04-09T12:00:19.328Z,1008.44
2019-04-09T12:01:20.659Z,1008.50
2019-04-09T12:02:19.955Z,1008.44
2019-04-09T12:03:19.492Z,1008.45
2019-04-09T12:04:19.375Z,1008.46
2019-04-09T12:05:19.248Z,1008.47
2019-04-09T12:06:19.420Z,1008.42
2019-04-09T12:07:19.979Z,1008.38
2019-04-09T12:08:19.214Z,1008.37
2019-04-09T12:09:19.358Z,1008.37
2019-04-09T12:10:19.140Z,1008.37
2019-04-09T12:11:19.232Z,1008.35
2019-04-09T12:12:19.951Z,1008.35
2019-04-09T12:13:19.216Z,1008.35
2019-04-09T12:14:19.949Z,1008.34
2019-04-09T12:15:19.040Z,1008.32
2019-04-09T12:16:19.472Z,1008.30
2019-04-09T12:17:21.261Z,1008.25
2019-04-09T12:18:19.751Z,1008.25
2019-04-09T12:19:20.091Z,1008.34
2019-04-09T12:20:19.991Z,1008.31
2019-04-09T12:21:19.328Z,1008.27
2019-04-09T12:22:21.863Z,1008.32
2019-04-09T12:23:18.902Z,1008.33
2019-04-09T12:24:18.921Z,1008.32
2019-04-09T12:25:19.771Z,1008.29
2019-04-09T12:26:18.840Z,1008.30
2019-04-09T12:27:18.961Z,1008.31
2019-04-09T12:28:19.189Z,1008.29
2019-04-09T12:29:23.519Z,1008.25
2019-04-09T12:30:19.593Z,1008.26
2019-04-09T12:31:19.662Z,1008.26
2019-04-09T12:32:22.172Z,1008.25
2019-04-09T12:33:19.637Z,1008.25
2019-04-09T12:34:18.680Z,1008.21
2019-04-09T12:35:19.097Z,1008.21
2019-04-09T12:36:18.644Z,1008.24
2019-04-09T12:37:19.632Z,1008.23
2019-04-09T12:38:18.613Z,1008.23
2019-04-09T12:39:18.733Z,1008.18
2019-04-09T12:40:18.577Z,1008.19
2019-04-09T12:41:19.418Z,1008.20
2019-04-09T12:42:18.530Z,1008.18
2019-04-09T12:43:18.863Z,1008.19
2019-04-09T12:44:18.651Z,1008.21
2019-04-09T12:45:18.481Z,1008.21
2019-04-09T12:46:19.299Z,1008.25
2019-04-09T12:47:18.441Z,1008.18
2019-04-09T12:48:18.771Z,1008.21
2019-04-09T12:49:18.996Z,1008.11
2019-04-09T12:50:18.491Z,1008.20
2019-04-09T12:51:18.642Z,1008.24
2019-04-09T12:52:18.502Z,1008.16
2019-04-09T12:53:18.342Z,1008.13
2019-04-09T12:54:18.314Z,1008.19
2019-04-09T12:55:19.141Z,1008.14
2019-04-09T12:56:18.431Z,1008.19
2019-04-09T12:57:18.253Z,1008.17
2019-04-09T12:58:18.669Z,1008.18
2019-04-09T12:59:19.007Z,1008.20
2019-04-09T13:00:18.203Z,1008.13
2019-04-09T13:01:18.264Z,1008.13
2019-04-09T13:02:28.001Z,1008.13
2019-04-09T13:03:18.718Z,1008.11
2019-04-09T13:04:18.281Z,1008.13
2019-04-09T13:05:18.221Z,1008.10
2019-04-09T13:06:19.085Z,1008.08
2019-04-09T13:07:19.344Z,1008.05
2019-04-09T13:08:18.041Z,1008.03
2019-04-09T13:09:18.251Z,1007.98
2019-04-09T13:10:18.015Z,1008.02
2019-04-09T13:11:18.198Z,1008.04
2019-04-09T13:12:19.989Z,1008.01
2019-04-09T13:13:18.273Z,1007.99
2019-04-09T13:14:18.068Z,1007.95
2019-04-09T13:15:17.927Z,1007.94
2019-04-09T13:16:19.010Z,1007.96
2019-04-09T13:17:18.125Z,1008.00
2019-04-09T13:18:17.972Z,1007.97
2019-04-09T13:19:17.852Z,1007.95
2019-04-09T13:20:18.015Z,1007.92
2019-04-09T13:21:19.801Z,1007.94
2019-04-09T13:22:17.803Z,1007.91
2019-04-09T13:23:18.659Z,1007.88
2019-04-09T13:24:18.878Z,1007.85
2019-04-09T13:25:17.732Z,1007.92
2019-04-09T13:26:17.831Z,1007.88
2019-04-09T13:27:18.647Z,1007.87
2019-04-09T13:28:18.413Z,1007.87
2019-04-09T13:29:18.577Z,1007.84
2019-04-09T13:30:17.828Z,1007.87
2019-04-09T13:31:17.631Z,1007.86
2019-04-09T13:32:17.765Z,1007.79
2019-04-09T13:33:18.302Z,1007.81
2019-04-09T13:34:17.584Z,1007.80
2019-04-09T13:35:17.698Z,1007.78
2019-04-09T13:36:17.806Z,1007.81
2019-04-09T13:37:18.826Z,1007.83
2019-04-09T13:38:17.743Z,1007.74
2019-04-09T13:39:17.716Z,1007.77
2019-04-09T13:40:17.625Z,1007.76
2019-04-09T13:41:17.950Z,1007.76
2019-04-09T13:42:18.383Z,1007.71
2019-04-09T13:43:17.484Z,1007.71
2019-04-09T13:44:17.372Z,1007.74
2019-04-09T13:45:17.845Z,1007.70
2019-04-09T13:46:17.463Z,1007.67
2019-04-09T13:47:17.434Z,1007.62
2019-04-09T13:48:18.377Z,1007.61
2019-04-09T13:49:17.285Z,1007.64
2019-04-09T13:50:17.262Z,1007.63
2019-04-09T13:51:17.394Z,1007.58
2019-04-09T13:52:18.151Z,1007.61
2019-04-09T13:53:18.133Z,1007.62
2019-04-09T13:54:17.593Z,1007.57
2019-04-09T13:55:17.171Z,1007.54
2019-04-09T13:56:17.152Z,1007.56
2019-04-09T13:57:17.869Z,1007.60
2019-04-09T13:58:18.055Z,1007.60
2019-04-09T13:59:18.491Z,1007.60
2019-04-09T14:00:17.076Z,1007.60
2019-04-09T14:01:17.053Z,1007.57
2019-04-09T14:02:17.162Z,1007.53
2019-04-09T14:03:28.092Z,1007.57
2019-04-09T14:04:17.476Z,1007.62
2019-04-09T14:05:17.888Z,1007.58
2019-04-09T14:06:17.072Z,1007.66
2019-04-09T14:07:17.429Z,1007.63
2019-04-09T14:08:17.153Z,1007.58
2019-04-09T14:09:17.411Z,1007.53
2019-04-09T14:10:16.910Z,1007.56
2019-04-09T14:11:16.871Z,1007.56
2019-04-09T14:12:16.922Z,1007.56
2019-04-09T14:13:18.065Z,1007.52
2019-04-09T14:14:16.830Z,1007.57
2019-04-09T14:15:16.840Z,1007.56
2019-04-09T14:16:16.771Z,1007.51
2019-04-09T14:17:17.517Z,1007.54
2019-04-09T14:18:17.692Z,1007.55
2019-04-09T14:19:17.672Z,1007.52
2019-04-09T14:20:17.763Z,1007.54
2019-04-09T14:21:16.763Z,1007.53
2019-04-09T14:22:16.671Z,1007.54
2019-04-09T14:23:17.449Z,1007.53
2019-04-09T14:24:16.619Z,1007.53
2019-04-09T14:25:16.943Z,1007.55
2019-04-09T14:26:16.581Z,1007.54
2019-04-09T14:27:28.130Z,1007.53
2019-04-09T14:28:16.545Z,1007.51
2019-04-09T14:29:16.731Z,1007.54
2019-04-09T14:30:16.499Z,1007.54
2019-04-09T14:31:16.520Z,1007.55
2019-04-09T14:32:16.460Z,1007.52
2019-04-09T14:33:16.552Z,1007.58
2019-04-09T14:34:17.124Z,1007.59
2019-04-09T14:35:17.226Z,1007.60
2019-04-09T14:36:16.515Z,1007.58
2019-04-09T14:37:16.377Z,1007.57
2019-04-09T14:38:16.598Z,1007.56
2019-04-09T14:39:16.730Z,1007.58
2019-04-09T14:40:17.404Z,1007.61
2019-04-09T14:41:16.534Z,1007.62
2019-04-09T14:42:16.384Z,1007.64
2019-04-09T14:43:17.119Z,1007.65
2019-04-09T14:44:16.288Z,1007.64
2019-04-09T14:45:16.301Z,1007.61
2019-04-09T14:46:16.559Z,1007.62
2019-04-09T14:47:16.210Z,1007.60
2019-04-09T14:48:17.145Z,1007.61
2019-04-09T14:49:18.464Z,1007.61
2019-04-09T14:50:16.120Z,1007.58
2019-04-09T14:51:16.092Z,1007.58
2019-04-09T14:52:16.369Z,1007.60
2019-04-09T14:53:16.532Z,1007.58
2019-04-09T14:54:16.586Z,1007.60
2019-04-09T14:55:17.125Z,1007.60
2019-04-09T14:56:16.018Z,1007.57
2019-04-09T14:57:16.616Z,1007.56
2019-04-09T14:58:17.110Z,1007.59
2019-04-09T14:59:15.941Z,1007.61
2019-04-09T15:00:16.319Z,1007.60
2019-04-09T15:01:15.911Z,1007.59
2019-04-09T15:02:15.981Z,1007.56
2019-04-09T15:03:23.255Z,1007.58
2019-04-09T15:04:15.843Z,1007.57
2019-04-09T15:05:16.305Z,1007.56
2019-04-09T15:06:16.411Z,1007.61
2019-04-09T15:07:15.990Z,1007.62
2019-04-09T15:08:15.760Z,1007.57
2019-04-09T15:09:16.534Z,1007.60
2019-04-09T15:10:15.793Z,1007.58
2019-04-09T15:11:15.741Z,1007.62
2019-04-09T15:12:15.691Z,1007.61
2019-04-09T15:13:16.369Z,1007.59
2019-04-09T15:14:15.666Z,1007.58
2019-04-09T15:15:15.768Z,1007.58
2019-04-09T15:16:15.669Z,1007.59
2019-04-09T15:17:16.407Z,1007.60
2019-04-09T15:18:15.561Z,1007.62
2019-04-09T15:19:15.552Z,1007.57
2019-04-09T15:20:17.556Z,1007.61
2019-04-09T15:21:15.501Z,1007.60
2019-04-09T15:22:16.193Z,1007.64
2019-04-09T15:23:15.874Z,1007.60
2019-04-09T15:24:15.449Z,1007.61
2019-04-09T15:25:15.620Z,1007.58
2019-04-09T15:26:15.399Z,1007.58
2019-04-09T15:27:15.522Z,1007.61
2019-04-09T15:28:16.291Z,1007.63
2019-04-09T15:29:15.342Z,1007.59
2019-04-09T15:30:15.331Z,1007.58
2019-04-09T15:31:16.292Z,1007.58
2019-04-09T15:32:15.282Z,1007.58
2019-04-09T15:33:27.493Z,1007.62
2019-04-09T15:34:15.994Z,1007.57
2019-04-09T15:35:16.263Z,1007.57
2019-04-09T15:36:15.202Z,1007.60
2019-04-09T15:37:15.380Z,1007.56
2019-04-09T15:38:15.223Z,1007.54
2019-04-09T15:39:15.606Z,1007.55
2019-04-09T15:40:15.314Z,1007.56
2019-04-09T15:41:15.389Z,1007.56
2019-04-09T15:42:16.090Z,1007.53
2019-04-09T15:43:15.701Z,1007.55
2019-04-09T15:44:15.221Z,1007.50
2019-04-09T15:45:15.022Z,1007.49
2019-04-09T15:46:15.116Z,1007.51
2019-04-09T15:47:15.992Z,1007.55
2019-04-09T15:48:16.101Z,1007.53
2019-04-09T15:49:15.630Z,1007.58
2019-04-09T15:50:15.060Z,1007.53
2019-04-09T15:51:15.829Z,1007.58
2019-04-09T15:52:15.408Z,1007.52
2019-04-09T15:53:27.613Z,1007.53
2019-04-09T15:54:15.764Z,1007.54
2019-04-09T15:55:15.041Z,1007.56
2019-04-09T15:56:14.790Z,1007.55
2019-04-09T15:57:15.202Z,1007.53
2019-04-09T15:58:14.762Z,1007.50
2019-04-09T16:59:46.659Z,1007.83
2019-04-09T17:00:43.783Z,1007.84
2019-04-09T17:04:55.834Z,1007.84
2019-04-09T17:05:33.351Z,1007.83
2019-04-09T17:06:31.785Z,1007.84
2019-04-09T17:07:31.877Z,1007.83
2019-04-09T17:08:31.861Z,1007.82
2019-04-09T17:09:35.938Z,1007.84
2019-04-09T17:10:34.086Z,1007.86
2019-04-09T17:11:32.429Z,1007.84
2019-04-09T17:12:31.798Z,1007.84
2019-04-09T17:13:31.743Z,1007.85
2019-04-09T17:14:34.273Z,1007.88
2019-04-09T17:15:31.639Z,1007.88
2019-04-09T17:16:32.764Z,1007.84
2019-04-09T17:17:32.577Z,1007.84
2019-04-09T17:18:31.761Z,1007.89
2019-04-09T17:19:31.579Z,1007.85
2019-04-09T17:20:31.499Z,1007.89
2019-04-09T17:21:31.793Z,1007.89
2019-04-09T17:22:32.371Z,1007.88
2019-04-09T17:23:32.246Z,1007.92
2019-04-09T17:24:31.404Z,1007.93
2019-04-09T17:25:33.214Z,1007.90
2019-04-09T17:26:31.802Z,1007.94
2019-04-09T17:27:31.913Z,1007.92
2019-04-09T17:28:31.928Z,1007.93
2019-04-09T17:29:31.287Z,1007.92
2019-04-09T17:30:32.239Z,1007.97
2019-04-09T17:31:32.106Z,1007.96
2019-04-09T17:32:31.977Z,1007.97
2019-04-09T17:33:31.221Z,1007.95
2019-04-09T17:34:34.068Z,1008.02
2019-04-09T17:35:31.213Z,1007.94
2019-04-09T17:49:09.796Z,1008.01
2019-04-09T17:49:31.221Z,1008.04
2019-04-09T17:50:30.380Z,1008.05
2019-04-09T17:51:31.096Z,1008.05
2019-04-09T17:52:30.474Z,1007.98
2019-04-09T17:53:30.858Z,1008.05
2019-04-09T17:54:30.187Z,1008.03
2019-04-09T17:55:30.849Z,1008.04
2019-04-09T17:56:30.144Z,1008.06
2019-04-09T17:57:30.203Z,1008.08
2019-04-09T17:58:29.848Z,1008.03
2019-04-09T17:59:29.834Z,1007.99
2019-04-09T18:00:29.795Z,1008.04
2019-04-09T18:01:29.868Z,1008.04
2019-04-09T18:02:29.765Z,1008.03
2019-04-09T18:03:29.724Z,1008.06
2019-04-09T18:04:40.644Z,1008.09
2019-04-09T18:05:30.664Z,1008.07
2019-04-09T18:06:29.731Z,1008.07
2019-04-09T18:07:29.615Z,1008.12
2019-04-09T18:08:30.516Z,1008.13
2019-04-09T18:09:31.642Z,1008.13
2019-04-09T18:10:30.514Z,1008.13
2019-04-09T18:11:29.617Z,1008.08
2019-04-09T18:12:30.506Z,1008.12
2019-04-09T18:13:29.701Z,1008.17
2019-04-09T18:14:29.474Z,1008.14
2019-04-09T18:15:29.592Z,1008.18
2019-04-09T18:16:29.430Z,1008.21
2019-04-09T18:17:29.465Z,1008.18
2019-04-09T18:18:29.456Z,1008.18
2019-04-09T18:19:29.377Z,1008.15
2019-04-09T18:20:29.948Z,1008.19
2019-04-09T18:21:30.216Z,1008.22
2019-04-09T18:22:29.499Z,1008.18
2019-04-09T18:23:29.267Z,1008.18
2019-04-09T18:24:30.664Z,1008.19
2019-04-09T18:25:30.217Z,1008.17
2019-04-09T18:26:30.449Z,1008.20
2019-04-09T18:27:29.626Z,1008.25
2019-04-09T18:28:30.180Z,1008.24
2019-04-09T18:29:29.432Z,1008.23
2019-04-09T18:30:29.102Z,1008.24
2019-04-09T18:31:34.148Z,1008.29
2019-04-09T18:32:29.595Z,1008.25
2019-04-09T18:33:30.089Z,1008.26
2019-04-09T18:34:29.187Z,1008.25
2019-04-09T18:35:30.082Z,1008.26
2019-04-09T18:36:28.951Z,1008.26
2019-04-09T18:37:30.168Z,1008.25
2019-04-09T18:38:28.976Z,1008.30
2019-04-09T18:39:29.859Z,1008.28
2019-04-09T18:40:28.861Z,1008.35
2019-04-09T18:41:28.853Z,1008.37
2019-04-09T18:42:28.905Z,1008.37
2019-04-09T18:43:28.962Z,1008.35
2019-04-09T18:44:28.826Z,1008.36
2019-04-09T18:45:28.972Z,1008.39
2019-04-09T18:46:28.714Z,1008.41
2019-04-09T18:47:29.558Z,1008.44
2019-04-09T18:48:36.662Z,1008.41
2019-04-09T18:49:29.606Z,1008.42
2019-04-09T18:50:28.825Z,1008.47
2019-04-09T18:51:29.933Z,1008.46
2019-04-09T18:52:29.678Z,1008.45
2019-04-09T18:53:29.085Z,1008.48
2019-04-09T18:54:29.376Z,1008.46
2019-04-09T18:55:30.776Z,1008.47
2019-04-09T18:56:28.995Z,1008.48
2019-04-09T18:57:28.455Z,1008.50
2019-04-09T18:58:28.521Z,1008.51
2019-04-09T18:59:29.559Z,1008.50
2019-04-09T19:00:28.502Z,1008.52
2019-04-09T19:01:28.351Z,1008.56
2019-04-09T19:02:29.066Z,1008.51
2019-04-09T19:03:28.317Z,1008.56
2019-04-09T19:04:28.316Z,1008.54
2019-04-09T19:05:28.269Z,1008.57
2019-04-09T19:06:28.373Z,1008.55
2019-04-09T19:07:28.418Z,1008.54
2019-04-09T19:08:28.432Z,1008.59
2019-04-09T19:09:28.370Z,1008.61
2019-04-09T19:10:28.150Z,1008.64
2019-04-09T19:11:28.166Z,1008.64
2019-04-09T19:12:28.823Z,1008.63